sensor_id;sensor_type;location;lat;lon;timestamp;noise_LAeq;noise_LA_min;noise_LA_max;noise_LA01;noise_LA95
69615;Laerm;56821;52.486;4.680;2023-07-29T00:00:09;39.88;37.69;42.39;;
69615;Laerm;56821;52.486;4.680;2023-07-29T00:00:20;41.72;39.73;43.88;;
69615;Laerm;56821;52.486;4.680;2023-07-29T00:00:31;42.69;38.82;45.51;;
69615;Laerm;56821;52.486;4.680;2023-07-29T00:00:42;41.48;35.43;46.42;;
69615;Laerm;56821;52.486;4.680;2023-07-29T00:00:52;37.60;35.46;40.18;;
69615;Laerm;56821;52.486;4.680;2023-07-29T00:01:02;37.06;35.42;38.89;;
69615;Laerm;56821;52.486;4.680;2023-07-29T00:01:13;35.65;33.56;40.25;;
69615;Laerm;56821;52.486;4.680;2023-07-29T00:01:23;36.35;34.45;38.84;;
69615;Laerm;56821;52.486;4.680;2023-07-29T00:01:34;36.33;34.51;38.60;;
69615;Laerm;56821;52.486;4.680;2023-07-29T00:01:44;36.54;33.48;39.02;;
69615;Laerm;56821;52.486;4.680;2023-07-29T00:01:55;36.45;33.99;41.21;;
69615;Laerm;56821;52.486;4.680;2023-07-29T00:02:05;37.30;34.87;41.26;;
69615;Laerm;56821;52.486;4.680;2023-07-29T00:02:15;39.01;34.99;41.36;;
69615;Laerm;56821;52.486;4.680;2023-07-29T00:02:25;39.67;36.76;42.63;;
69615;Laerm;56821;52.486;4.680;2023-07-29T00:02:36;39.44;35.65;42.10;;
69615;Laerm;56821;52.486;4.680;2023-07-29T00:02:46;38.88;36.48;41.73;;
69615;Laerm;56821;52.486;4.680;2023-07-29T00:02:57;39.06;36.50;42.90;;
69615;Laerm;56821;52.486;4.680;2023-07-29T00:03:07;40.35;37.38;43.70;;
69615;Laerm;56821;52.486;4.680;2023-07-29T00:03:17;40.52;38.03;42.99;;
69615;Laerm;56821;52.486;4.680;2023-07-29T00:03:27;42.01;39.13;44.34;;
69615;Laerm;56821;52.486;4.680;2023-07-29T00:03:40;45.80;38.28;51.70;;
69615;Laerm;56821;52.486;4.680;2023-07-29T00:03:50;43.07;39.50;46.72;;
69615;Laerm;56821;52.486;4.680;2023-07-29T00:04:01;45.04;40.75;47.83;;
69615;Laerm;56821;52.486;4.680;2023-07-29T00:04:11;40.50;37.71;43.75;;
69615;Laerm;56821;52.486;4.680;2023-07-29T00:04:22;40.94;37.65;47.92;;
69615;Laerm;56821;52.486;4.680;2023-07-29T00:04:32;39.22;36.98;41.85;;
69615;Laerm;56821;52.486;4.680;2023-07-29T00:04:42;38.92;36.81;40.55;;
69615;Laerm;56821;52.486;4.680;2023-07-29T00:04:52;36.99;34.36;38.68;;
69615;Laerm;56821;52.486;4.680;2023-07-29T00:05:03;38.19;36.33;40.52;;
69615;Laerm;56821;52.486;4.680;2023-07-29T00:05:13;37.61;35.82;39.71;;
69615;Laerm;56821;52.486;4.680;2023-07-29T00:05:23;37.91;36.40;40.69;;
69615;Laerm;56821;52.486;4.680;2023-07-29T00:05:34;39.34;35.67;43.46;;
69615;Laerm;56821;52.486;4.680;2023-07-29T00:05:44;44.15;39.71;52.64;;
69615;Laerm;56821;52.486;4.680;2023-07-29T00:05:54;43.45;39.07;51.08;;
69615;Laerm;56821;52.486;4.680;2023-07-29T00:06:04;39.02;36.90;41.82;;
69615;Laerm;56821;52.486;4.680;2023-07-29T00:06:15;38.31;35.68;40.80;;
69615;Laerm;56821;52.486;4.680;2023-07-29T00:06:25;39.15;36.82;44.81;;
69615;Laerm;56821;52.486;4.680;2023-07-29T00:06:35;38.18;35.81;40.17;;
69615;Laerm;56821;52.486;4.680;2023-07-29T00:06:45;43.51;37.89;52.88;;
69615;Laerm;56821;52.486;4.680;2023-07-29T00:06:56;38.78;35.84;43.73;;
69615;Laerm;56821;52.486;4.680;2023-07-29T00:07:06;38.20;35.20;41.80;;
69615;Laerm;56821;52.486;4.680;2023-07-29T00:07:16;39.74;36.35;43.02;;
69615;Laerm;56821;52.486;4.680;2023-07-29T00:07:26;40.17;37.34;43.38;;
69615;Laerm;56821;52.486;4.680;2023-07-29T00:07:37;41.82;40.16;44.64;;
69615;Laerm;56821;52.486;4.680;2023-07-29T00:07:47;42.07;38.84;51.31;;
69615;Laerm;56821;52.486;4.680;2023-07-29T00:07:57;43.52;38.49;49.51;;
69615;Laerm;56821;52.486;4.680;2023-07-29T00:08:07;41.11;37.61;46.57;;
69615;Laerm;56821;52.486;4.680;2023-07-29T00:08:18;41.27;37.08;48.74;;
69615;Laerm;56821;52.486;4.680;2023-07-29T00:08:28;39.62;36.30;46.90;;
69615;Laerm;56821;52.486;4.680;2023-07-29T00:08:38;39.58;37.04;42.69;;
69615;Laerm;56821;52.486;4.680;2023-07-29T00:08:48;38.57;35.87;43.18;;
69615;Laerm;56821;52.486;4.680;2023-07-29T00:08:59;40.20;37.49;51.23;;
69615;Laerm;56821;52.486;4.680;2023-07-29T00:09:09;41.00;37.56;48.04;;
69615;Laerm;56821;52.486;4.680;2023-07-29T00:09:19;38.60;36.24;43.05;;
69615;Laerm;56821;52.486;4.680;2023-07-29T00:09:29;39.09;36.71;42.36;;
69615;Laerm;56821;52.486;4.680;2023-07-29T00:09:40;40.40;36.94;43.75;;
69615;Laerm;56821;52.486;4.680;2023-07-29T00:09:50;41.95;39.27;45.42;;
69615;Laerm;56821;52.486;4.680;2023-07-29T00:10:00;40.60;37.67;45.41;;
69615;Laerm;56821;52.486;4.680;2023-07-29T00:10:10;41.36;37.78;45.57;;
69615;Laerm;56821;52.486;4.680;2023-07-29T00:10:21;39.54;36.55;42.48;;
69615;Laerm;56821;52.486;4.680;2023-07-29T00:10:31;39.03;36.75;41.44;;
69615;Laerm;56821;52.486;4.680;2023-07-29T00:10:41;38.06;35.50;41.13;;
69615;Laerm;56821;52.486;4.680;2023-07-29T00:10:52;37.66;35.39;40.12;;
69615;Laerm;56821;52.486;4.680;2023-07-29T00:11:02;38.28;36.34;41.44;;
69615;Laerm;56821;52.486;4.680;2023-07-29T00:11:12;38.14;35.96;41.69;;
69615;Laerm;56821;52.486;4.680;2023-07-29T00:11:22;37.93;35.22;40.74;;
69615;Laerm;56821;52.486;4.680;2023-07-29T00:11:33;38.10;35.04;43.02;;
69615;Laerm;56821;52.486;4.680;2023-07-29T00:11:43;40.70;37.65;44.56;;
69615;Laerm;56821;52.486;4.680;2023-07-29T00:11:54;42.05;39.60;44.60;;
69615;Laerm;56821;52.486;4.680;2023-07-29T00:12:04;41.23;39.15;44.43;;
69615;Laerm;56821;52.486;4.680;2023-07-29T00:12:14;42.00;39.53;48.78;;
69615;Laerm;56821;52.486;4.680;2023-07-29T00:12:24;43.29;39.92;47.01;;
69615;Laerm;56821;52.486;4.680;2023-07-29T00:12:35;42.73;39.19;45.85;;
69615;Laerm;56821;52.486;4.680;2023-07-29T00:12:45;39.81;37.31;42.28;;
69615;Laerm;56821;52.486;4.680;2023-07-29T00:12:55;39.53;37.05;41.39;;
69615;Laerm;56821;52.486;4.680;2023-07-29T00:13:05;39.43;37.24;42.23;;
69615;Laerm;56821;52.486;4.680;2023-07-29T00:13:16;38.65;37.13;40.28;;
69615;Laerm;56821;52.486;4.680;2023-07-29T00:13:26;37.89;36.11;40.35;;
69615;Laerm;56821;52.486;4.680;2023-07-29T00:13:37;38.48;36.10;45.34;;
69615;Laerm;56821;52.486;4.680;2023-07-29T00:13:47;38.08;35.91;42.88;;
69615;Laerm;56821;52.486;4.680;2023-07-29T00:14:00;39.36;36.20;43.08;;
69615;Laerm;56821;52.486;4.680;2023-07-29T00:14:11;41.96;39.25;49.80;;
69615;Laerm;56821;52.486;4.680;2023-07-29T00:14:21;39.69;37.32;41.89;;
69615;Laerm;56821;52.486;4.680;2023-07-29T00:14:31;40.28;37.31;47.57;;
69615;Laerm;56821;52.486;4.680;2023-07-29T00:14:41;38.70;36.71;42.11;;
69615;Laerm;56821;52.486;4.680;2023-07-29T00:14:52;38.47;36.65;40.47;;
69615;Laerm;56821;52.486;4.680;2023-07-29T00:15:02;37.88;35.48;48.52;;
69615;Laerm;56821;52.486;4.680;2023-07-29T00:15:12;37.35;35.49;39.29;;
69615;Laerm;56821;52.486;4.680;2023-07-29T00:15:23;37.48;34.96;46.78;;
69615;Laerm;56821;52.486;4.680;2023-07-29T00:15:33;37.83;34.29;40.48;;
69615;Laerm;56821;52.486;4.680;2023-07-29T00:15:43;37.67;35.82;40.16;;
69615;Laerm;56821;52.486;4.680;2023-07-29T00:15:54;37.06;34.21;39.65;;
69615;Laerm;56821;52.486;4.680;2023-07-29T00:16:05;37.32;35.16;38.81;;
69615;Laerm;56821;52.486;4.680;2023-07-29T00:16:16;37.03;34.50;39.42;;
69615;Laerm;56821;52.486;4.680;2023-07-29T00:16:27;36.43;33.60;48.73;;
69615;Laerm;56821;52.486;4.680;2023-07-29T00:16:37;35.56;33.21;38.61;;
69615;Laerm;56821;52.486;4.680;2023-07-29T00:16:47;38.31;34.99;48.26;;
69615;Laerm;56821;52.486;4.680;2023-07-29T00:16:58;38.22;35.34;40.49;;
69615;Laerm;56821;52.486;4.680;2023-07-29T00:17:08;36.93;34.37;40.73;;
69615;Laerm;56821;52.486;4.680;2023-07-29T00:17:18;36.60;34.30;40.31;;
69615;Laerm;56821;52.486;4.680;2023-07-29T00:17:30;36.43;34.15;41.30;;
69615;Laerm;56821;52.486;4.680;2023-07-29T00:17:40;38.23;33.24;50.66;;
69615;Laerm;56821;52.486;4.680;2023-07-29T00:17:50;40.93;37.81;43.25;;
69615;Laerm;56821;52.486;4.680;2023-07-29T00:18:00;39.36;36.20;42.51;;
69615;Laerm;56821;52.486;4.680;2023-07-29T00:18:11;39.25;36.81;48.81;;
69615;Laerm;56821;52.486;4.680;2023-07-29T00:18:21;38.37;35.06;40.86;;
69615;Laerm;56821;52.486;4.680;2023-07-29T00:18:32;38.48;35.65;41.65;;
69615;Laerm;56821;52.486;4.680;2023-07-29T00:18:43;38.78;36.57;40.57;;
69615;Laerm;56821;52.486;4.680;2023-07-29T00:18:53;41.28;38.77;53.24;;
69615;Laerm;56821;52.486;4.680;2023-07-29T00:19:03;43.20;40.98;50.44;;
69615;Laerm;56821;52.486;4.680;2023-07-29T00:19:14;41.48;38.57;43.34;;
69615;Laerm;56821;52.486;4.680;2023-07-29T00:19:24;38.62;36.20;42.77;;
69615;Laerm;56821;52.486;4.680;2023-07-29T00:19:34;38.12;35.24;40.49;;
69615;Laerm;56821;52.486;4.680;2023-07-29T00:19:45;37.10;34.79;40.28;;
69615;Laerm;56821;52.486;4.680;2023-07-29T00:19:55;38.27;34.49;50.70;;
69615;Laerm;56821;52.486;4.680;2023-07-29T00:20:06;38.56;36.28;42.09;;
69615;Laerm;56821;52.486;4.680;2023-07-29T00:20:16;36.47;34.36;38.43;;
69615;Laerm;56821;52.486;4.680;2023-07-29T00:20:26;37.46;34.10;46.98;;
69615;Laerm;56821;52.486;4.680;2023-07-29T00:20:37;37.52;35.45;40.89;;
69615;Laerm;56821;52.486;4.680;2023-07-29T00:20:47;38.21;35.97;48.08;;
69615;Laerm;56821;52.486;4.680;2023-07-29T00:20:57;37.89;34.88;47.90;;
69615;Laerm;56821;52.486;4.680;2023-07-29T00:21:07;39.23;35.90;52.13;;
69615;Laerm;56821;52.486;4.680;2023-07-29T00:21:18;37.97;35.64;40.79;;
69615;Laerm;56821;52.486;4.680;2023-07-29T00:21:28;40.77;36.81;51.28;;
69615;Laerm;56821;52.486;4.680;2023-07-29T00:21:38;39.66;34.70;52.06;;
69615;Laerm;56821;52.486;4.680;2023-07-29T00:21:49;38.15;34.81;51.22;;
69615;Laerm;56821;52.486;4.680;2023-07-29T00:21:59;38.08;34.38;48.55;;
69615;Laerm;56821;52.486;4.680;2023-07-29T00:22:09;36.37;34.67;39.33;;
69615;Laerm;56821;52.486;4.680;2023-07-29T00:22:19;39.30;35.73;51.29;;
69615;Laerm;56821;52.486;4.680;2023-07-29T00:22:30;39.87;36.80;42.65;;
69615;Laerm;56821;52.486;4.680;2023-07-29T00:22:40;45.36;36.54;64.70;;
69615;Laerm;56821;52.486;4.680;2023-07-29T00:22:50;51.94;37.06;62.76;;
69615;Laerm;56821;52.486;4.680;2023-07-29T00:23:03;37.35;34.67;49.58;;
69615;Laerm;56821;52.486;4.680;2023-07-29T00:23:13;37.51;34.97;44.78;;
69615;Laerm;56821;52.486;4.680;2023-07-29T00:23:23;37.84;34.82;47.07;;
69615;Laerm;56821;52.486;4.680;2023-07-29T00:23:33;39.34;34.41;53.49;;
69615;Laerm;56821;52.486;4.680;2023-07-29T00:23:44;40.02;35.89;51.28;;
69615;Laerm;56821;52.486;4.680;2023-07-29T00:23:55;37.24;35.47;39.67;;
69615;Laerm;56821;52.486;4.680;2023-07-29T00:24:07;37.61;34.88;48.80;;
69615;Laerm;56821;52.486;4.680;2023-07-29T00:24:17;36.04;34.42;41.88;;
69615;Laerm;56821;52.486;4.680;2023-07-29T00:24:27;36.36;33.55;39.19;;
69615;Laerm;56821;52.486;4.680;2023-07-29T00:24:39;36.60;34.81;42.10;;
69615;Laerm;56821;52.486;4.680;2023-07-29T00:24:52;37.39;34.56;44.01;;
69615;Laerm;56821;52.486;4.680;2023-07-29T00:25:05;36.94;33.50;50.41;;
69615;Laerm;56821;52.486;4.680;2023-07-29T00:25:15;35.41;32.90;38.20;;
69615;Laerm;56821;52.486;4.680;2023-07-29T00:25:26;38.86;35.59;42.75;;
69615;Laerm;56821;52.486;4.680;2023-07-29T00:25:36;38.45;35.52;47.07;;
69615;Laerm;56821;52.486;4.680;2023-07-29T00:25:46;40.31;37.73;42.81;;
69615;Laerm;56821;52.486;4.680;2023-07-29T00:25:56;39.57;36.89;42.40;;
69615;Laerm;56821;52.486;4.680;2023-07-29T00:26:07;38.85;36.36;48.76;;
69615;Laerm;56821;52.486;4.680;2023-07-29T00:26:17;38.44;36.03;41.15;;
69615;Laerm;56821;52.486;4.680;2023-07-29T00:26:27;37.96;35.21;47.54;;
69615;Laerm;56821;52.486;4.680;2023-07-29T00:26:39;40.57;37.38;43.76;;
69615;Laerm;56821;52.486;4.680;2023-07-29T00:26:49;40.87;37.18;51.00;;
69615;Laerm;56821;52.486;4.680;2023-07-29T00:26:59;38.86;35.23;44.88;;
69615;Laerm;56821;52.486;4.680;2023-07-29T00:27:09;38.13;35.58;40.28;;
69615;Laerm;56821;52.486;4.680;2023-07-29T00:27:20;40.87;37.40;45.71;;
69615;Laerm;56821;52.486;4.680;2023-07-29T00:27:30;36.51;33.87;39.35;;
69615;Laerm;56821;52.486;4.680;2023-07-29T00:27:40;36.57;33.84;46.01;;
69615;Laerm;56821;52.486;4.680;2023-07-29T00:27:50;39.08;34.80;42.61;;
69615;Laerm;56821;52.486;4.680;2023-07-29T00:28:01;41.26;36.51;45.77;;
69615;Laerm;56821;52.486;4.680;2023-07-29T00:28:11;37.41;35.31;40.00;;
69615;Laerm;56821;52.486;4.680;2023-07-29T00:28:22;38.10;35.00;51.08;;
69615;Laerm;56821;52.486;4.680;2023-07-29T00:28:32;37.97;35.53;40.20;;
69615;Laerm;56821;52.486;4.680;2023-07-29T00:28:42;39.09;36.88;42.92;;
69615;Laerm;56821;52.486;4.680;2023-07-29T00:28:52;40.60;35.84;44.88;;
69615;Laerm;56821;52.486;4.680;2023-07-29T00:29:03;38.58;36.83;41.74;;
69615;Laerm;56821;52.486;4.680;2023-07-29T00:29:13;40.64;37.18;46.18;;
69615;Laerm;56821;52.486;4.680;2023-07-29T00:29:23;40.94;37.69;47.86;;
69615;Laerm;56821;52.486;4.680;2023-07-29T00:29:33;43.15;36.85;53.52;;
69615;Laerm;56821;52.486;4.680;2023-07-29T00:29:44;39.48;36.96;43.62;;
69615;Laerm;56821;52.486;4.680;2023-07-29T00:29:54;41.75;37.50;44.72;;
69615;Laerm;56821;52.486;4.680;2023-07-29T00:30:04;37.17;34.72;41.54;;
69615;Laerm;56821;52.486;4.680;2023-07-29T00:30:15;37.57;34.62;40.83;;
69615;Laerm;56821;52.486;4.680;2023-07-29T00:30:25;38.25;35.01;43.01;;
69615;Laerm;56821;52.486;4.680;2023-07-29T00:30:36;36.73;34.76;39.47;;
69615;Laerm;56821;52.486;4.680;2023-07-29T00:30:46;38.28;35.58;43.59;;
69615;Laerm;56821;52.486;4.680;2023-07-29T00:30:56;37.72;35.61;41.30;;
69615;Laerm;56821;52.486;4.680;2023-07-29T00:31:06;37.69;35.06;40.29;;
69615;Laerm;56821;52.486;4.680;2023-07-29T00:31:16;38.21;35.18;40.43;;
69615;Laerm;56821;52.486;4.680;2023-07-29T00:31:27;40.27;37.75;42.62;;
69615;Laerm;56821;52.486;4.680;2023-07-29T00:31:37;39.34;36.40;48.24;;
69615;Laerm;56821;52.486;4.680;2023-07-29T00:31:47;40.77;37.01;49.80;;
69615;Laerm;56821;52.486;4.680;2023-07-29T00:31:57;40.28;37.95;42.71;;
69615;Laerm;56821;52.486;4.680;2023-07-29T00:32:08;39.42;37.44;44.90;;
69615;Laerm;56821;52.486;4.680;2023-07-29T00:32:18;43.38;38.08;49.49;;
69615;Laerm;56821;52.486;4.680;2023-07-29T00:32:29;42.36;38.13;46.61;;
69615;Laerm;56821;52.486;4.680;2023-07-29T00:32:39;43.71;39.39;48.55;;
69615;Laerm;56821;52.486;4.680;2023-07-29T00:32:49;44.46;38.64;53.40;;
69615;Laerm;56821;52.486;4.680;2023-07-29T00:33:00;40.72;37.01;47.94;;
69615;Laerm;56821;52.486;4.680;2023-07-29T00:33:10;39.11;35.71;49.46;;
69615;Laerm;56821;52.486;4.680;2023-07-29T00:33:20;41.90;36.45;47.67;;
69615;Laerm;56821;52.486;4.680;2023-07-29T00:33:30;41.72;36.56;46.59;;
69615;Laerm;56821;52.486;4.680;2023-07-29T00:33:41;39.62;36.21;50.96;;
69615;Laerm;56821;52.486;4.680;2023-07-29T00:33:51;38.62;36.13;41.40;;
69615;Laerm;56821;52.486;4.680;2023-07-29T00:34:02;40.60;37.69;44.78;;
69615;Laerm;56821;52.486;4.680;2023-07-29T00:34:13;38.43;36.19;41.17;;
69615;Laerm;56821;52.486;4.680;2023-07-29T00:34:27;39.31;35.81;49.10;;
69615;Laerm;56821;52.486;4.680;2023-07-29T00:34:37;38.22;35.45;41.33;;
69615;Laerm;56821;52.486;4.680;2023-07-29T00:34:47;37.80;35.22;48.56;;
69615;Laerm;56821;52.486;4.680;2023-07-29T00:34:57;36.58;34.81;38.36;;
69615;Laerm;56821;52.486;4.680;2023-07-29T00:35:10;37.71;34.92;41.01;;
69615;Laerm;56821;52.486;4.680;2023-07-29T00:35:21;38.02;35.26;41.00;;
69615;Laerm;56821;52.486;4.680;2023-07-29T00:35:31;40.91;35.69;46.89;;
69615;Laerm;56821;52.486;4.680;2023-07-29T00:35:41;40.15;35.87;49.02;;
69615;Laerm;56821;52.486;4.680;2023-07-29T00:35:51;38.74;36.53;41.61;;
69615;Laerm;56821;52.486;4.680;2023-07-29T00:36:02;40.57;37.84;44.58;;
69615;Laerm;56821;52.486;4.680;2023-07-29T00:36:12;40.30;36.08;50.35;;
69615;Laerm;56821;52.486;4.680;2023-07-29T00:36:23;39.83;36.59;43.83;;
69615;Laerm;56821;52.486;4.680;2023-07-29T00:36:33;37.97;35.51;41.14;;
69615;Laerm;56821;52.486;4.680;2023-07-29T00:36:43;39.09;35.87;49.90;;
69615;Laerm;56821;52.486;4.680;2023-07-29T00:36:54;38.87;36.24;41.34;;
69615;Laerm;56821;52.486;4.680;2023-07-29T00:37:04;37.22;34.63;40.87;;
69615;Laerm;56821;52.486;4.680;2023-07-29T00:37:15;36.83;34.84;39.00;;
69615;Laerm;56821;52.486;4.680;2023-07-29T00:37:26;38.76;34.94;53.02;;
69615;Laerm;56821;52.486;4.680;2023-07-29T00:37:36;37.72;35.46;41.13;;
69615;Laerm;56821;52.486;4.680;2023-07-29T00:37:47;38.78;36.02;50.97;;
69615;Laerm;56821;52.486;4.680;2023-07-29T00:37:58;37.83;35.66;41.74;;
69615;Laerm;56821;52.486;4.680;2023-07-29T00:38:08;37.51;35.16;39.73;;
69615;Laerm;56821;52.486;4.680;2023-07-29T00:38:18;37.91;34.81;49.83;;
69615;Laerm;56821;52.486;4.680;2023-07-29T00:38:28;36.49;34.23;46.78;;
69615;Laerm;56821;52.486;4.680;2023-07-29T00:38:39;36.32;34.56;40.71;;
69615;Laerm;56821;52.486;4.680;2023-07-29T00:38:49;37.12;34.75;48.93;;
69615;Laerm;56821;52.486;4.680;2023-07-29T00:38:59;37.35;33.83;40.73;;
69615;Laerm;56821;52.486;4.680;2023-07-29T00:39:09;38.43;36.18;47.21;;
69615;Laerm;56821;52.486;4.680;2023-07-29T00:39:20;40.35;37.77;42.78;;
69615;Laerm;56821;52.486;4.680;2023-07-29T00:39:30;38.73;35.84;43.43;;
69615;Laerm;56821;52.486;4.680;2023-07-29T00:39:40;43.65;36.35;57.74;;
69615;Laerm;56821;52.486;4.680;2023-07-29T00:39:50;39.87;35.76;56.08;;
69615;Laerm;56821;52.486;4.680;2023-07-29T00:40:00;39.58;35.52;49.65;;
69615;Laerm;56821;52.486;4.680;2023-07-29T00:40:19;39.17;37.21;43.46;;
69615;Laerm;56821;52.486;4.680;2023-07-29T00:40:29;43.10;37.17;53.79;;
69615;Laerm;56821;52.486;4.680;2023-07-29T00:40:40;44.00;41.02;47.02;;
69615;Laerm;56821;52.486;4.680;2023-07-29T00:40:51;43.35;38.54;54.14;;
69615;Laerm;56821;52.486;4.680;2023-07-29T00:41:04;46.12;40.02;51.36;;
69615;Laerm;56821;52.486;4.680;2023-07-29T00:41:14;46.60;42.02;51.74;;
69615;Laerm;56821;52.486;4.680;2023-07-29T00:41:25;44.18;37.90;50.10;;
69615;Laerm;56821;52.486;4.680;2023-07-29T00:41:35;39.09;36.15;42.10;;
69615;Laerm;56821;52.486;4.680;2023-07-29T00:41:46;38.47;35.82;41.26;;
69615;Laerm;56821;52.486;4.680;2023-07-29T00:41:56;38.45;35.02;42.30;;
69615;Laerm;56821;52.486;4.680;2023-07-29T00:42:06;38.64;36.08;42.26;;
69615;Laerm;56821;52.486;4.680;2023-07-29T00:42:16;37.47;35.30;41.09;;
69615;Laerm;56821;52.486;4.680;2023-07-29T00:42:27;39.02;34.20;51.45;;
69615;Laerm;56821;52.486;4.680;2023-07-29T00:42:37;37.76;34.30;48.35;;
69615;Laerm;56821;52.486;4.680;2023-07-29T00:42:47;36.93;34.18;40.05;;
69615;Laerm;56821;52.486;4.680;2023-07-29T00:42:58;40.15;37.24;49.37;;
69615;Laerm;56821;52.486;4.680;2023-07-29T00:43:08;38.45;35.90;42.06;;
69615;Laerm;56821;52.486;4.680;2023-07-29T00:43:18;39.69;35.99;50.78;;
69615;Laerm;56821;52.486;4.680;2023-07-29T00:43:29;41.05;38.66;44.57;;
69615;Laerm;56821;52.486;4.680;2023-07-29T00:43:39;38.95;34.98;53.51;;
69615;Laerm;56821;52.486;4.680;2023-07-29T00:43:49;36.27;34.06;41.00;;
69615;Laerm;56821;52.486;4.680;2023-07-29T00:43:59;37.61;34.72;45.84;;
69615;Laerm;56821;52.486;4.680;2023-07-29T00:44:10;36.71;34.33;39.04;;
69615;Laerm;56821;52.486;4.680;2023-07-29T00:44:20;41.29;34.88;55.35;;
69615;Laerm;56821;52.486;4.680;2023-07-29T00:44:30;36.82;35.33;39.39;;
69615;Laerm;56821;52.486;4.680;2023-07-29T00:44:41;39.44;35.49;43.69;;
69615;Laerm;56821;52.486;4.680;2023-07-29T00:44:52;49.80;38.48;61.89;;
69615;Laerm;56821;52.486;4.680;2023-07-29T00:45:02;43.06;38.03;52.01;;
69615;Laerm;56821;52.486;4.680;2023-07-29T00:45:12;46.33;36.07;59.67;;
69615;Laerm;56821;52.486;4.680;2023-07-29T00:45:23;37.86;35.74;39.70;;
69615;Laerm;56821;52.486;4.680;2023-07-29T00:45:34;38.46;35.48;51.44;;
69615;Laerm;56821;52.486;4.680;2023-07-29T00:45:45;37.33;34.81;42.03;;
69615;Laerm;56821;52.486;4.680;2023-07-29T00:45:56;38.50;35.07;48.36;;
69615;Laerm;56821;52.486;4.680;2023-07-29T00:46:08;41.00;38.36;43.75;;
69615;Laerm;56821;52.486;4.680;2023-07-29T00:46:19;40.75;38.70;48.75;;
69615;Laerm;56821;52.486;4.680;2023-07-29T00:46:30;40.37;37.90;42.28;;
69615;Laerm;56821;52.486;4.680;2023-07-29T00:46:41;40.72;37.23;47.83;;
69615;Laerm;56821;52.486;4.680;2023-07-29T00:46:52;38.02;35.05;43.72;;
69615;Laerm;56821;52.486;4.680;2023-07-29T00:47:03;38.45;36.18;41.14;;
69615;Laerm;56821;52.486;4.680;2023-07-29T00:47:15;38.81;36.24;41.39;;
69615;Laerm;56821;52.486;4.680;2023-07-29T00:47:25;38.81;36.35;42.51;;
69615;Laerm;56821;52.486;4.680;2023-07-29T00:47:36;40.83;38.16;43.92;;
69615;Laerm;56821;52.486;4.680;2023-07-29T00:47:46;42.65;38.38;45.84;;
69615;Laerm;56821;52.486;4.680;2023-07-29T00:47:57;39.97;36.61;44.37;;
69615;Laerm;56821;52.486;4.680;2023-07-29T00:48:08;38.80;36.48;47.42;;
69615;Laerm;56821;52.486;4.680;2023-07-29T00:48:18;38.37;36.27;40.71;;
69615;Laerm;56821;52.486;4.680;2023-07-29T00:48:28;37.13;34.93;39.79;;
69615;Laerm;56821;52.486;4.680;2023-07-29T00:48:39;38.63;36.50;40.85;;
69615;Laerm;56821;52.486;4.680;2023-07-29T00:48:49;37.57;35.51;39.94;;
69615;Laerm;56821;52.486;4.680;2023-07-29T00:48:59;36.92;35.12;39.19;;
69615;Laerm;56821;52.486;4.680;2023-07-29T00:49:09;36.96;35.07;38.78;;
69615;Laerm;56821;52.486;4.680;2023-07-29T00:49:20;37.53;35.40;48.52;;
69615;Laerm;56821;52.486;4.680;2023-07-29T00:49:30;36.93;35.32;39.00;;
69615;Laerm;56821;52.486;4.680;2023-07-29T00:49:41;37.88;36.11;40.64;;
69615;Laerm;56821;52.486;4.680;2023-07-29T00:49:52;38.73;35.59;51.23;;
69615;Laerm;56821;52.486;4.680;2023-07-29T00:50:03;39.36;36.77;45.53;;
69615;Laerm;56821;52.486;4.680;2023-07-29T00:50:14;43.76;36.79;55.44;;
69615;Laerm;56821;52.486;4.680;2023-07-29T00:50:24;39.04;36.39;44.51;;
69615;Laerm;56821;52.486;4.680;2023-07-29T00:50:37;38.36;36.34;40.46;;
69615;Laerm;56821;52.486;4.680;2023-07-29T00:50:47;37.93;35.71;40.59;;
69615;Laerm;56821;52.486;4.680;2023-07-29T00:50:58;37.56;35.04;43.68;;
69615;Laerm;56821;52.486;4.680;2023-07-29T00:51:08;38.24;35.91;40.01;;
69615;Laerm;56821;52.486;4.680;2023-07-29T00:51:18;37.08;35.31;39.78;;
69615;Laerm;56821;52.486;4.680;2023-07-29T00:51:29;36.59;34.20;39.11;;
69615;Laerm;56821;52.486;4.680;2023-07-29T00:51:39;38.63;36.17;42.29;;
69615;Laerm;56821;52.486;4.680;2023-07-29T00:51:49;39.60;35.95;44.53;;
69615;Laerm;56821;52.486;4.680;2023-07-29T00:52:00;36.64;35.09;39.39;;
69615;Laerm;56821;52.486;4.680;2023-07-29T00:52:10;36.16;34.46;38.17;;
69615;Laerm;56821;52.486;4.680;2023-07-29T00:52:22;38.74;34.44;42.48;;
69615;Laerm;56821;52.486;4.680;2023-07-29T00:52:32;38.59;35.95;41.16;;
69615;Laerm;56821;52.486;4.680;2023-07-29T00:52:42;38.20;36.05;40.64;;
69615;Laerm;56821;52.486;4.680;2023-07-29T00:52:53;37.62;35.76;40.22;;
69615;Laerm;56821;52.486;4.680;2023-07-29T00:53:04;39.20;36.96;46.25;;
69615;Laerm;56821;52.486;4.680;2023-07-29T00:53:14;39.71;35.74;47.55;;
69615;Laerm;56821;52.486;4.680;2023-07-29T00:53:25;39.18;36.85;41.62;;
69615;Laerm;56821;52.486;4.680;2023-07-29T00:53:35;38.67;35.90;40.70;;
69615;Laerm;56821;52.486;4.680;2023-07-29T00:53:45;38.75;36.43;41.15;;
69615;Laerm;56821;52.486;4.680;2023-07-29T00:53:55;37.53;35.79;40.25;;
69615;Laerm;56821;52.486;4.680;2023-07-29T00:54:05;36.92;34.87;39.30;;
69615;Laerm;56821;52.486;4.680;2023-07-29T00:54:16;37.35;33.64;40.88;;
69615;Laerm;56821;52.486;4.680;2023-07-29T00:54:26;35.56;33.13;37.83;;
69615;Laerm;56821;52.486;4.680;2023-07-29T00:54:36;36.17;34.11;39.62;;
69615;Laerm;56821;52.486;4.680;2023-07-29T00:54:46;36.16;33.38;38.40;;
69615;Laerm;56821;52.486;4.680;2023-07-29T00:54:57;37.27;33.94;51.49;;
69615;Laerm;56821;52.486;4.680;2023-07-29T00:55:07;36.91;34.58;39.93;;
69615;Laerm;56821;52.486;4.680;2023-07-29T00:55:18;37.33;34.06;42.08;;
69615;Laerm;56821;52.486;4.680;2023-07-29T00:55:28;39.63;35.73;47.98;;
69615;Laerm;56821;52.486;4.680;2023-07-29T00:55:38;44.43;34.29;62.68;;
69615;Laerm;56821;52.486;4.680;2023-07-29T00:55:49;39.01;35.41;42.16;;
69615;Laerm;56821;52.486;4.680;2023-07-29T00:55:59;36.17;34.59;42.34;;
69615;Laerm;56821;52.486;4.680;2023-07-29T00:56:10;35.89;33.64;37.84;;
69615;Laerm;56821;52.486;4.680;2023-07-29T00:56:20;37.14;35.47;39.59;;
69615;Laerm;56821;52.486;4.680;2023-07-29T00:56:30;38.51;36.35;46.34;;
69615;Laerm;56821;52.486;4.680;2023-07-29T00:56:40;38.08;35.37;40.70;;
69615;Laerm;56821;52.486;4.680;2023-07-29T00:56:51;37.46;35.26;47.58;;
69615;Laerm;56821;52.486;4.680;2023-07-29T00:57:01;39.68;35.56;50.07;;
69615;Laerm;56821;52.486;4.680;2023-07-29T00:57:11;42.56;38.33;47.14;;
69615;Laerm;56821;52.486;4.680;2023-07-29T00:57:24;50.25;38.50;64.29;;
69615;Laerm;56821;52.486;4.680;2023-07-29T00:57:36;50.63;36.13;63.28;;
69615;Laerm;56821;52.486;4.680;2023-07-29T00:57:46;38.70;34.61;50.36;;
69615;Laerm;56821;52.486;4.680;2023-07-29T00:57:58;35.58;33.93;37.68;;
69615;Laerm;56821;52.486;4.680;2023-07-29T00:58:08;36.62;33.30;47.42;;
69615;Laerm;56821;52.486;4.680;2023-07-29T00:58:19;40.13;34.42;54.44;;
69615;Laerm;56821;52.486;4.680;2023-07-29T00:58:29;40.37;35.72;45.12;;
69615;Laerm;56821;52.486;4.680;2023-07-29T00:58:39;41.33;37.79;44.87;;
69615;Laerm;56821;52.486;4.680;2023-07-29T00:58:50;42.74;37.41;49.67;;